createdAt,value
2023-05-10T00:01:08.668Z,17.36
2023-05-10T00:03:35.533Z,17.38
2023-05-10T00:06:02.471Z,17.32
2023-05-10T00:08:29.227Z,17.20
2023-05-10T00:10:57.480Z,17.37
2023-05-10T00:13:24.458Z,17.36
2023-05-10T00:15:52.229Z,17.36
2023-05-10T00:18:18.995Z,17.35
2023-05-10T00:20:47.246Z,17.21
2023-05-10T00:23:13.990Z,17.24
2023-05-10T00:25:40.702Z,17.28
2023-05-10T00:28:07.653Z,17.28
2023-05-10T00:30:34.413Z,17.26
2023-05-10T00:33:01.597Z,17.11
2023-05-10T00:35:28.500Z,17.22
2023-05-10T00:37:55.220Z,16.95
2023-05-10T00:40:22.182Z,16.60
2023-05-10T00:42:49.008Z,17.15
2023-05-10T00:45:16.112Z,17.07
2023-05-10T00:47:42.943Z,17.10
2023-05-10T00:50:10.638Z,17.01
2023-05-10T00:52:38.014Z,17.07
2023-05-10T00:55:05.154Z,17.04
2023-05-10T00:57:32.057Z,16.96
2023-05-10T00:59:59.113Z,16.98
2023-05-10T01:02:26.125Z,16.89
2023-05-10T01:04:53.267Z,16.37
2023-05-10T01:07:20.080Z,16.69
2023-05-10T01:09:46.797Z,16.69
2023-05-10T01:12:13.757Z,16.87
2023-05-10T01:14:40.657Z,16.85
2023-05-10T01:17:07.561Z,16.76
2023-05-10T01:19:36.256Z,16.84
2023-05-10T01:22:12.889Z,16.72
2023-05-10T01:25:18.078Z,16.77
2023-05-10T01:28:06.179Z,16.70
2023-05-10T01:30:48.219Z,16.66
2023-05-10T01:33:37.875Z,16.62
2023-05-10T01:36:16.251Z,16.55
2023-05-10T01:38:43.632Z,16.56
2023-05-10T01:41:20.121Z,16.32
2023-05-10T01:44:04.718Z,16.57
2023-05-10T01:46:38.159Z,16.45
2023-05-10T01:49:09.910Z,16.51
2023-05-10T01:51:47.484Z,16.51
2023-05-10T01:54:14.666Z,16.28
2023-05-10T01:56:42.341Z,16.50
2023-05-10T01:59:18.029Z,16.48
2023-05-10T02:01:44.733Z,16.26
2023-05-10T02:04:11.945Z,16.40
2023-05-10T02:06:39.659Z,16.42
2023-05-10T02:09:06.399Z,16.08
2023-05-10T02:11:33.164Z,16.08
2023-05-10T02:14:00.245Z,16.27
2023-05-10T02:16:27.647Z,16.29
2023-05-10T02:18:54.413Z,16.31
2023-05-10T02:21:21.981Z,16.23
2023-05-10T02:23:49.752Z,16.30
2023-05-10T02:26:16.627Z,16.26
2023-05-10T02:28:44.135Z,16.25
2023-05-10T02:31:11.649Z,16.25
2023-05-10T02:33:42.004Z,15.91
2023-05-10T02:36:09.226Z,16.21
2023-05-10T02:38:36.019Z,15.99
2023-05-10T02:41:03.071Z,15.99
2023-05-10T02:43:29.931Z,16.14
2023-05-10T02:45:56.719Z,16.10
2023-05-10T02:48:23.569Z,16.09
2023-05-10T02:50:52.640Z,16.07
2023-05-10T02:53:22.592Z,16.04
2023-05-10T02:55:51.889Z,15.83
2023-05-10T02:58:20.552Z,15.77
2023-05-10T03:00:47.645Z,15.67
2023-05-10T03:03:14.376Z,15.93
2023-05-10T03:05:41.168Z,15.87
2023-05-10T03:08:07.947Z,15.65
2023-05-10T03:10:35.179Z,15.62
2023-05-10T03:13:31.851Z,15.65
2023-05-10T03:16:15.883Z,15.82
2023-05-10T03:18:49.487Z,15.64
2023-05-10T03:21:16.340Z,15.62
2023-05-10T03:23:53.540Z,15.69
2023-05-10T03:26:26.792Z,15.68
2023-05-10T03:28:54.178Z,15.72
2023-05-10T03:31:20.946Z,15.63
2023-05-10T03:33:51.114Z,15.70
2023-05-10T03:36:18.262Z,15.70
2023-05-10T03:38:44.995Z,15.67
2023-05-10T03:41:11.799Z,15.46
2023-05-10T03:43:38.590Z,15.10
2023-05-10T03:46:05.911Z,15.03
2023-05-10T03:48:33.297Z,15.31
2023-05-10T03:51:00.261Z,15.44
2023-05-10T03:53:28.424Z,15.31
2023-05-10T03:55:55.196Z,15.56
2023-05-10T03:58:23.080Z,15.52
2023-05-10T04:00:49.882Z,15.44
2023-05-10T04:03:16.849Z,15.52
2023-05-10T04:05:43.829Z,15.51
2023-05-10T04:08:10.740Z,15.50
2023-05-10T04:10:37.462Z,15.46
2023-05-10T04:13:04.353Z,15.28
2023-05-10T04:15:31.095Z,15.30
2023-05-10T04:17:57.849Z,15.43
2023-05-10T04:20:24.771Z,15.47
2023-05-10T04:22:51.594Z,15.44
2023-05-10T04:25:18.333Z,15.40
2023-05-10T04:27:45.302Z,15.27
2023-05-10T04:30:13.542Z,15.34
2023-05-10T04:32:40.421Z,15.25
2023-05-10T04:35:07.599Z,15.27
2023-05-10T04:37:34.353Z,15.09
2023-05-10T04:40:01.325Z,15.30
2023-05-10T04:42:28.167Z,15.27
2023-05-10T04:44:55.082Z,15.25
2023-05-10T04:47:21.857Z,15.11
2023-05-10T04:49:48.792Z,15.14
2023-05-10T04:52:17.343Z,14.75
2023-05-10T04:54:44.155Z,15.15
2023-05-10T04:57:11.217Z,15.14
2023-05-10T04:59:38.792Z,15.03
2023-05-10T05:02:06.221Z,14.87
2023-05-10T05:04:33.296Z,15.06
2023-05-10T05:07:00.207Z,14.82
2023-05-10T05:09:26.927Z,15.02
2023-05-10T05:11:53.827Z,14.99
2023-05-10T05:14:22.057Z,14.97
2023-05-10T05:16:48.801Z,14.96
2023-05-10T05:19:15.623Z,14.87
2023-05-10T05:21:42.414Z,14.89
2023-05-10T05:24:09.365Z,14.75
2023-05-10T05:26:36.181Z,14.86
2023-05-10T05:29:03.045Z,14.84
2023-05-10T05:31:30.165Z,14.86
2023-05-10T05:33:57.230Z,14.71
2023-05-10T05:36:24.017Z,14.84
2023-05-10T05:38:50.815Z,14.83
2023-05-10T05:41:17.696Z,14.80
2023-05-10T05:43:44.552Z,14.69
2023-05-10T05:46:11.458Z,14.59
2023-05-10T05:48:38.336Z,14.75
2023-05-10T05:51:07.190Z,14.64
2023-05-10T05:53:34.181Z,14.75
2023-05-10T05:56:01.116Z,14.65
2023-05-10T05:58:28.125Z,14.81
2023-05-10T06:00:55.180Z,14.88
2023-05-10T06:03:22.284Z,14.96
2023-05-10T06:05:49.471Z,15.06
2023-05-10T06:08:16.254Z,14.98
2023-05-10T06:10:43.188Z,15.25
2023-05-10T06:13:10.013Z,15.16
2023-05-10T06:15:36.972Z,15.26
2023-05-10T06:18:04.036Z,15.55
2023-05-10T06:20:32.625Z,15.74
2023-05-10T06:22:59.554Z,15.78
2023-05-10T06:25:26.508Z,15.80
2023-05-10T06:27:58.209Z,15.88
2023-05-10T06:30:28.621Z,15.91
2023-05-10T06:32:56.001Z,15.69
2023-05-10T06:35:22.900Z,15.87
2023-05-10T06:37:50.372Z,15.64
2023-05-10T06:40:17.354Z,15.76
2023-05-10T06:42:46.048Z,16.20
2023-05-10T06:45:13.259Z,16.42
2023-05-10T06:47:40.120Z,16.70
2023-05-10T06:50:08.538Z,16.92
2023-05-10T06:52:35.521Z,17.14
2023-05-10T06:55:02.973Z,17.38
2023-05-10T06:57:31.873Z,17.64
2023-05-10T07:00:00.574Z,17.52
2023-05-10T07:02:27.718Z,18.03
2023-05-10T07:04:55.332Z,18.24
2023-05-10T07:07:22.407Z,18.50
2023-05-10T07:09:50.048Z,18.73
2023-05-10T07:12:16.868Z,18.67
2023-05-10T07:14:43.806Z,19.11
2023-05-10T07:17:11.084Z,19.17
2023-05-10T07:19:37.964Z,19.06
2023-05-10T07:22:04.942Z,19.60
2023-05-10T07:24:32.397Z,19.86
2023-05-10T07:26:59.208Z,20.05
2023-05-10T07:29:26.207Z,20.08
2023-05-10T07:31:53.020Z,20.39
2023-05-10T07:34:19.869Z,20.57
2023-05-10T07:36:46.839Z,20.76
2023-05-10T07:39:18.593Z,20.70
2023-05-10T07:41:53.179Z,20.92
2023-05-10T07:44:21.422Z,20.61
2023-05-10T07:46:48.777Z,20.79
2023-05-10T07:49:15.786Z,20.96
2023-05-10T07:51:43.619Z,20.56
2023-05-10T07:54:10.495Z,21.04
2023-05-10T07:56:37.314Z,21.20
2023-05-10T07:59:09.257Z,21.32
2023-05-10T08:01:37.938Z,21.22
2023-05-10T08:04:04.940Z,21.56
2023-05-10T08:06:31.805Z,21.68
2023-05-10T08:08:58.692Z,21.68
2023-05-10T08:11:25.999Z,21.51
2023-05-10T08:13:54.002Z,21.70
2023-05-10T08:16:21.113Z,21.26
2023-05-10T08:18:48.318Z,21.77
2023-05-10T08:21:15.932Z,21.81
2023-05-10T08:23:44.872Z,21.93
2023-05-10T08:26:11.972Z,21.97
2023-05-10T08:28:38.838Z,22.12
2023-05-10T08:31:06.127Z,22.20
2023-05-10T08:33:33.004Z,22.34
2023-05-10T08:35:59.864Z,22.55
2023-05-10T08:38:27.079Z,22.62
2023-05-10T08:40:57.584Z,22.51
2023-05-10T08:43:24.621Z,22.69
2023-05-10T08:45:51.369Z,22.73
2023-05-10T08:48:18.163Z,23.07
2023-05-10T08:50:45.595Z,23.19
2023-05-10T08:53:14.026Z,23.24
2023-05-10T08:55:43.348Z,23.28
2023-05-10T08:58:10.205Z,23.26
2023-05-10T09:00:38.260Z,23.38
2023-05-10T09:03:05.974Z,23.39
2023-05-10T09:05:34.227Z,23.20
2023-05-10T09:08:03.779Z,23.14
2023-05-10T09:10:30.865Z,23.40
2023-05-10T09:12:59.402Z,23.44
2023-05-10T09:15:27.630Z,23.50
2023-05-10T09:17:54.537Z,23.42
2023-05-10T09:20:21.781Z,23.45
2023-05-10T09:22:48.590Z,23.45
2023-05-10T09:25:16.589Z,23.53
2023-05-10T09:27:47.526Z,23.65
2023-05-10T09:30:32.452Z,23.62
2023-05-10T09:33:00.225Z,23.88
2023-05-10T09:35:29.813Z,23.83
2023-05-10T09:37:58.365Z,24.11
2023-05-10T09:40:26.495Z,24.06
2023-05-10T09:43:00.908Z,24.46
2023-05-10T09:45:37.749Z,24.52
2023-05-10T09:48:06.049Z,24.97
2023-05-10T09:50:32.976Z,25.09
2023-05-10T09:53:01.487Z,25.21
2023-05-10T09:55:43.036Z,25.32
2023-05-10T09:58:12.854Z,25.37
2023-05-10T10:00:43.953Z,25.31
2023-05-10T10:03:16.399Z,25.48
2023-05-10T10:05:46.540Z,25.49
2023-05-10T10:08:13.804Z,25.32
2023-05-10T10:10:46.497Z,25.39
2023-05-10T10:13:13.373Z,25.51
2023-05-10T10:15:40.173Z,25.62
2023-05-10T10:18:07.125Z,25.83
2023-05-10T10:20:34.554Z,25.94
2023-05-10T10:23:01.432Z,26.16
2023-05-10T10:25:28.345Z,26.17
2023-05-10T10:27:57.902Z,26.19
2023-05-10T10:30:47.236Z,26.18
2023-05-10T10:33:31.219Z,26.38
2023-05-10T10:36:00.084Z,26.57
2023-05-10T10:38:26.944Z,26.30
2023-05-10T10:41:03.932Z,26.68
2023-05-10T10:43:31.464Z,26.75
2023-05-10T10:46:18.547Z,26.59
2023-05-10T10:48:50.250Z,26.66
2023-05-10T10:51:17.203Z,26.57
2023-05-10T10:53:44.134Z,26.67
2023-05-10T10:56:13.010Z,26.43
2023-05-10T10:58:40.294Z,26.53
2023-05-10T11:01:14.524Z,26.58
2023-05-10T11:03:41.591Z,26.53
2023-05-10T11:06:09.466Z,26.43
2023-05-10T11:08:44.150Z,26.33
2023-05-10T11:11:11.377Z,26.53
2023-05-10T11:13:47.754Z,26.57
2023-05-10T11:16:19.045Z,26.67
2023-05-10T11:19:05.937Z,26.87
2023-05-10T11:21:33.672Z,26.95
2023-05-10T11:24:01.270Z,26.93
2023-05-10T11:26:36.349Z,26.99
2023-05-10T11:29:04.226Z,27.00
2023-05-10T11:31:31.129Z,27.03
2023-05-10T11:33:59.605Z,27.22
2023-05-10T11:36:28.164Z,27.20
2023-05-10T11:38:55.309Z,27.66
2023-05-10T11:41:23.254Z,27.76
2023-05-10T11:43:55.072Z,28.10
2023-05-10T11:46:24.008Z,28.29
2023-05-10T11:48:52.062Z,28.37
2023-05-10T11:51:25.270Z,28.50
2023-05-10T11:53:55.863Z,28.60
2023-05-10T11:56:22.985Z,28.74
2023-05-10T11:58:57.409Z,29.04
2023-05-10T12:01:27.795Z,29.35
2023-05-10T12:03:56.090Z,29.80
2023-05-10T12:06:23.269Z,30.28
2023-05-10T12:08:54.867Z,30.48
2023-05-10T12:11:22.853Z,30.54
2023-05-10T12:13:50.920Z,30.53
2023-05-10T12:16:22.527Z,30.61
2023-05-10T12:18:50.063Z,30.44
2023-05-10T12:21:16.877Z,30.38
2023-05-10T12:23:43.898Z,30.10
2023-05-10T12:26:11.389Z,30.16
2023-05-10T12:28:38.501Z,30.23
2023-05-10T12:31:06.578Z,30.76
2023-05-10T12:33:44.225Z,31.28
2023-05-10T12:36:11.775Z,31.58
2023-05-10T12:38:40.323Z,31.84
2023-05-10T12:41:11.074Z,31.88
2023-05-10T12:43:38.288Z,32.09
2023-05-10T12:46:12.481Z,32.30
2023-05-10T12:48:40.107Z,31.16
2023-05-10T12:51:09.778Z,31.34
2023-05-10T12:53:37.057Z,31.47
2023-05-10T12:56:03.984Z,31.88
2023-05-10T12:58:35.868Z,31.99
2023-05-10T13:01:03.168Z,31.07
2023-05-10T13:03:30.110Z,30.05
2023-05-10T13:05:57.027Z,29.13
2023-05-10T13:08:23.829Z,28.33
2023-05-10T13:10:50.696Z,27.43
2023-05-10T13:13:17.675Z,26.75
2023-05-10T13:15:44.459Z,26.14
2023-05-10T13:18:11.778Z,25.64
2023-05-10T13:20:38.775Z,25.10
2023-05-10T13:23:05.593Z,24.80
2023-05-10T13:25:32.536Z,24.48
2023-05-10T13:27:59.294Z,24.27
2023-05-10T13:30:26.281Z,24.00
2023-05-10T13:32:53.340Z,23.71
2023-05-10T13:35:20.178Z,23.53
2023-05-10T13:37:46.906Z,23.37
2023-05-10T13:40:14.838Z,23.25
2023-05-10T13:42:42.437Z,23.13
2023-05-10T13:45:14.226Z,22.75
2023-05-10T13:47:47.212Z,22.76
2023-05-10T13:50:13.996Z,22.46
2023-05-10T13:52:41.063Z,22.61
2023-05-10T13:55:09.283Z,22.52
2023-05-10T13:57:37.095Z,22.39
2023-05-10T14:00:04.269Z,22.19
2023-05-10T14:02:31.227Z,22.00
2023-05-10T14:04:58.090Z,22.21
2023-05-10T14:07:24.835Z,22.15
2023-05-10T14:09:51.835Z,22.10
2023-05-10T14:12:18.645Z,22.07
2023-05-10T14:14:46.406Z,22.04
2023-05-10T14:17:13.247Z,21.94
2023-05-10T14:19:40.304Z,21.39
2023-05-10T14:22:07.132Z,21.88
2023-05-10T14:24:33.956Z,21.86
2023-05-10T14:27:01.308Z,21.79
2023-05-10T14:29:28.375Z,21.78
2023-05-10T14:31:55.248Z,21.61
2023-05-10T14:34:22.119Z,21.77
2023-05-10T14:36:48.894Z,21.55
2023-05-10T14:39:15.841Z,21.46
2023-05-10T14:41:44.050Z,21.58
2023-05-10T14:44:11.190Z,21.41
2023-05-10T14:46:38.504Z,21.37
2023-05-10T14:49:05.253Z,21.29
2023-05-10T14:51:32.951Z,21.32
2023-05-10T14:53:59.953Z,21.32
2023-05-10T14:56:29.660Z,21.27
2023-05-10T14:58:56.719Z,21.21
2023-05-10T15:01:24.461Z,20.90
2023-05-10T15:03:51.945Z,21.15
2023-05-10T15:06:22.259Z,21.13
2023-05-10T15:08:49.389Z,21.11
2023-05-10T15:11:16.270Z,20.94
2023-05-10T15:13:43.178Z,20.92
2023-05-10T15:16:10.042Z,20.89
2023-05-10T15:18:36.839Z,20.85
2023-05-10T15:21:03.690Z,20.85
2023-05-10T15:23:31.318Z,20.87
2023-05-10T15:25:58.350Z,20.83
2023-05-10T15:28:25.087Z,20.75
2023-05-10T15:30:52.458Z,20.77
2023-05-10T15:33:19.287Z,20.77
2023-05-10T15:35:46.143Z,20.62
2023-05-10T15:38:12.994Z,20.77
2023-05-10T15:40:39.754Z,20.78
2023-05-10T15:43:06.877Z,20.65
2023-05-10T15:45:35.223Z,20.48
2023-05-10T15:48:04.715Z,20.82
2023-05-10T15:50:31.514Z,20.79
2023-05-10T15:52:58.321Z,20.77
2023-05-10T15:55:25.059Z,20.52
2023-05-10T15:57:51.803Z,20.68
2023-05-10T16:00:19.276Z,20.58
2023-05-10T16:02:46.521Z,20.51
2023-05-10T16:05:14.134Z,20.58
2023-05-10T16:07:42.503Z,20.57
2023-05-10T16:10:10.941Z,20.50
2023-05-10T16:12:38.329Z,20.40
2023-05-10T16:15:06.092Z,19.91
2023-05-10T16:17:32.950Z,20.21
2023-05-10T16:19:59.730Z,20.11
2023-05-10T16:22:29.822Z,20.23
2023-05-10T16:24:59.695Z,20.10
2023-05-10T16:27:28.828Z,20.26
2023-05-10T16:29:55.846Z,19.94
2023-05-10T16:32:22.661Z,20.27
2023-05-10T16:34:50.317Z,20.28
2023-05-10T16:37:19.426Z,20.34
2023-05-10T16:39:46.179Z,20.37
2023-05-10T16:42:13.123Z,20.36
2023-05-10T16:44:40.555Z,20.37
2023-05-10T16:47:07.796Z,20.19
2023-05-10T16:49:36.340Z,20.37
2023-05-10T16:52:03.544Z,20.37
2023-05-10T16:54:30.505Z,20.38
2023-05-10T16:56:57.234Z,20.33
2023-05-10T16:59:24.211Z,20.35
2023-05-10T17:01:53.386Z,20.36
2023-05-10T17:04:20.423Z,20.32
2023-05-10T17:06:47.353Z,20.35
2023-05-10T17:09:14.128Z,20.34
2023-05-10T17:11:42.072Z,20.20
2023-05-10T17:14:08.944Z,20.26
2023-05-10T17:16:35.932Z,20.24
2023-05-10T17:19:04.323Z,20.26
2023-05-10T17:21:32.523Z,20.25
2023-05-10T17:23:59.236Z,20.23
2023-05-10T17:26:27.681Z,20.20
2023-05-10T17:28:55.131Z,20.16
2023-05-10T17:31:22.018Z,20.09
2023-05-10T17:33:48.789Z,20.07
2023-05-10T17:36:15.668Z,20.09
2023-05-10T17:38:43.507Z,20.06
2023-05-10T17:41:12.608Z,20.07
2023-05-10T17:43:39.725Z,20.03
2023-05-10T17:46:08.815Z,20.01
2023-05-10T17:48:37.199Z,19.90
2023-05-10T17:51:04.591Z,20.06
2023-05-10T17:53:31.388Z,20.09
2023-05-10T17:55:59.100Z,20.13
2023-05-10T17:58:25.960Z,19.92
2023-05-10T18:00:53.024Z,20.10
2023-05-10T18:03:19.841Z,20.10
2023-05-10T18:05:47.287Z,20.10
2023-05-10T18:08:14.267Z,19.81
2023-05-10T18:10:41.696Z,19.99
2023-05-10T18:13:09.051Z,19.97
2023-05-10T18:15:35.874Z,19.95
2023-05-10T18:18:04.250Z,19.87
2023-05-10T18:20:31.952Z,19.70
2023-05-10T18:22:58.787Z,19.93
2023-05-10T18:25:25.829Z,19.85
2023-05-10T18:27:52.918Z,19.74
2023-05-10T18:30:19.836Z,19.78
2023-05-10T18:32:46.802Z,19.77
2023-05-10T18:35:13.710Z,19.59
2023-05-10T18:37:40.595Z,19.71
2023-05-10T18:40:14.241Z,19.72
2023-05-10T18:42:46.647Z,19.70
2023-05-10T18:45:14.003Z,19.68
2023-05-10T18:47:40.819Z,19.25
2023-05-10T18:50:08.272Z,19.63
2023-05-10T18:52:36.864Z,19.61
2023-05-10T18:55:03.986Z,19.56
2023-05-10T18:57:30.819Z,19.52
2023-05-10T18:59:57.689Z,19.38
2023-05-10T19:02:26.924Z,19.29
2023-05-10T19:04:54.042Z,19.19
2023-05-10T19:07:21.001Z,19.12
2023-05-10T19:09:47.911Z,18.99
2023-05-10T19:12:14.835Z,18.87
2023-05-10T19:14:41.576Z,18.87
2023-05-10T19:17:08.722Z,18.61
2023-05-10T19:19:37.784Z,18.74
2023-05-10T19:22:04.758Z,18.41
2023-05-10T19:24:31.670Z,18.61
2023-05-10T19:26:58.541Z,18.46
2023-05-10T19:29:27.607Z,18.24
2023-05-10T19:31:54.507Z,18.43
2023-05-10T19:34:21.326Z,18.32
2023-05-10T19:36:48.316Z,18.13
2023-05-10T19:39:15.316Z,18.18
2023-05-10T19:41:42.146Z,18.15
2023-05-10T19:44:10.738Z,17.88
2023-05-10T19:46:37.827Z,18.04
2023-05-10T19:49:04.675Z,18.02
2023-05-10T19:51:31.576Z,17.83
2023-05-10T19:53:58.310Z,17.98
2023-05-10T19:56:26.891Z,17.82
2023-05-10T19:58:53.804Z,17.92
2023-05-10T20:01:21.058Z,17.89
2023-05-10T20:03:48.138Z,17.87
2023-05-10T20:06:14.991Z,17.84
2023-05-10T20:08:41.716Z,17.82
2023-05-10T20:11:08.516Z,17.79
2023-05-10T20:13:35.313Z,17.62
2023-05-10T20:16:02.695Z,17.64
2023-05-10T20:18:29.443Z,17.81
2023-05-10T20:20:58.929Z,17.83
2023-05-10T20:23:26.326Z,17.56
2023-05-10T20:25:54.908Z,17.06
2023-05-10T20:28:23.201Z,17.80
2023-05-10T20:30:54.199Z,17.58
2023-05-10T20:33:21.841Z,17.51
2023-05-10T20:35:50.805Z,17.66
2023-05-10T20:38:18.345Z,17.65
2023-05-10T20:40:45.633Z,17.69
2023-05-10T20:43:12.506Z,17.52
2023-05-10T20:45:39.384Z,17.59
2023-05-10T20:48:06.359Z,17.33
2023-05-10T20:50:33.222Z,17.58
2023-05-10T20:53:01.039Z,17.57
2023-05-10T20:55:28.334Z,17.26
2023-05-10T20:57:55.248Z,17.53
2023-05-10T21:00:22.151Z,17.49
2023-05-10T21:02:49.485Z,17.44
2023-05-10T21:05:17.927Z,17.32
2023-05-10T21:07:44.716Z,17.05
2023-05-10T21:10:11.661Z,17.31
2023-05-10T21:12:38.867Z,17.33
2023-05-10T21:15:06.193Z,17.19
2023-05-10T21:17:32.946Z,17.32
2023-05-10T21:19:59.750Z,17.01
2023-05-10T21:22:26.984Z,17.00
2023-05-10T21:24:53.701Z,17.17
2023-05-10T21:27:20.882Z,17.08
2023-05-10T21:29:47.749Z,17.08
2023-05-10T21:32:15.053Z,17.05
2023-05-10T21:34:42.244Z,16.87
2023-05-10T21:37:09.234Z,17.17
2023-05-10T21:39:36.138Z,17.13
2023-05-10T21:42:03.903Z,17.17
2023-05-10T21:44:31.882Z,17.16
2023-05-10T21:46:58.906Z,17.16
2023-05-10T21:49:25.931Z,17.17
2023-05-10T21:51:52.661Z,16.95
2023-05-10T21:54:19.563Z,17.15
2023-05-10T21:56:46.526Z,17.14
2023-05-10T21:59:13.264Z,17.00
2023-05-10T22:01:40.209Z,17.04
2023-05-10T22:04:07.106Z,16.95
2023-05-10T22:06:33.977Z,16.65
2023-05-10T22:09:00.761Z,17.15
2023-05-10T22:11:27.665Z,17.13
2023-05-10T22:13:54.494Z,17.12
2023-05-10T22:16:21.249Z,17.12
2023-05-10T22:18:48.305Z,17.09
2023-05-10T22:21:15.111Z,17.08
2023-05-10T22:23:41.828Z,17.06
2023-05-10T22:26:08.767Z,16.86
2023-05-10T22:28:35.656Z,17.02
2023-05-10T22:31:02.422Z,16.79
2023-05-10T22:33:29.894Z,17.06
2023-05-10T22:35:56.616Z,16.84
2023-05-10T22:38:23.348Z,17.00
2023-05-10T22:40:50.366Z,17.02
2023-05-10T22:43:17.860Z,17.00
2023-05-10T22:45:44.569Z,17.00
2023-05-10T22:48:11.489Z,16.99
2023-05-10T22:50:38.349Z,16.93
2023-05-10T22:53:05.106Z,17.00
2023-05-10T22:55:32.113Z,16.71
2023-05-10T22:57:58.945Z,16.99
2023-05-10T23:00:25.797Z,16.90
2023-05-10T23:02:53.105Z,16.95
2023-05-10T23:05:20.114Z,16.86
2023-05-10T23:07:55.370Z,16.91
2023-05-10T23:10:22.383Z,16.91
2023-05-10T23:12:49.220Z,16.91
2023-05-10T23:15:16.289Z,16.94
2023-05-10T23:17:43.079Z,16.83
2023-05-10T23:20:10.474Z,16.95
2023-05-10T23:22:37.643Z,16.96
2023-05-10T23:25:04.740Z,16.75
2023-05-10T23:27:31.605Z,16.78
2023-05-10T23:29:58.859Z,16.83
2023-05-10T23:32:25.768Z,16.91
2023-05-10T23:34:52.699Z,16.75
2023-05-10T23:37:19.648Z,16.90
2023-05-10T23:39:46.590Z,16.89
2023-05-10T23:42:13.461Z,16.89
2023-05-10T23:44:41.268Z,16.88
2023-05-10T23:47:08.005Z,16.84
2023-05-10T23:49:34.877Z,16.89
2023-05-10T23:52:01.749Z,16.80
2023-05-10T23:54:28.980Z,16.88
2023-05-10T23:56:55.706Z,16.83
2023-05-10T23:59:22.567Z,16.84
